sensor_id;sensor_type;location;lat;lon;timestamp;temperature;humidity
31733;DHT22;18312;51.486;7.144;2023-03-29T00:00:35;5.20;99.90
31733;DHT22;18312;51.486;7.144;2023-03-29T00:03:01;5.30;99.90
31733;DHT22;18312;51.486;7.144;2023-03-29T00:05:28;5.20;99.90
31733;DHT22;18312;51.486;7.144;2023-03-29T00:07:58;5.20;99.90
31733;DHT22;18312;51.486;7.144;2023-03-29T00:10:26;5.30;99.90
31733;DHT22;18312;51.486;7.144;2023-03-29T00:12:53;5.30;99.90
31733;DHT22;18312;51.486;7.144;2023-03-29T00:15:19;5.30;99.90
31733;DHT22;18312;51.486;7.144;2023-03-29T00:17:47;5.30;99.90
31733;DHT22;18312;51.486;7.144;2023-03-29T00:20:14;5.30;99.90
31733;DHT22;18312;51.486;7.144;2023-03-29T00:22:41;5.40;99.90
31733;DHT22;18312;51.486;7.144;2023-03-29T00:25:08;5.30;99.90
31733;DHT22;18312;51.486;7.144;2023-03-29T00:27:35;5.40;99.90
31733;DHT22;18312;51.486;7.144;2023-03-29T00:30:03;5.40;99.90
31733;DHT22;18312;51.486;7.144;2023-03-29T00:32:30;5.40;99.90
31733;DHT22;18312;51.486;7.144;2023-03-29T00:34:58;5.50;99.90
31733;DHT22;18312;51.486;7.144;2023-03-29T00:37:26;5.50;99.90
31733;DHT22;18312;51.486;7.144;2023-03-29T00:39:54;5.50;99.90
31733;DHT22;18312;51.486;7.144;2023-03-29T00:42:21;5.50;99.90
31733;DHT22;18312;51.486;7.144;2023-03-29T00:44:52;5.50;99.90
31733;DHT22;18312;51.486;7.144;2023-03-29T00:47:21;5.60;99.90
31733;DHT22;18312;51.486;7.144;2023-03-29T00:49:49;5.60;99.90
31733;DHT22;18312;51.486;7.144;2023-03-29T00:52:17;5.60;99.90
31733;DHT22;18312;51.486;7.144;2023-03-29T00:54:45;5.60;99.90
31733;DHT22;18312;51.486;7.144;2023-03-29T00:57:14;5.60;99.90
31733;DHT22;18312;51.486;7.144;2023-03-29T00:59:42;5.60;99.90
31733;DHT22;18312;51.486;7.144;2023-03-29T01:02:10;5.60;99.90
31733;DHT22;18312;51.486;7.144;2023-03-29T01:04:38;5.70;99.90
31733;DHT22;18312;51.486;7.144;2023-03-29T01:07:08;5.70;99.90
31733;DHT22;18312;51.486;7.144;2023-03-29T01:09:40;5.60;99.90
31733;DHT22;18312;51.486;7.144;2023-03-29T01:12:10;5.70;99.90
31733;DHT22;18312;51.486;7.144;2023-03-29T01:14:39;5.70;99.90
31733;DHT22;18312;51.486;7.144;2023-03-29T01:17:07;5.70;99.90
31733;DHT22;18312;51.486;7.144;2023-03-29T01:19:36;5.70;99.90
31733;DHT22;18312;51.486;7.144;2023-03-29T01:22:06;5.70;99.90
31733;DHT22;18312;51.486;7.144;2023-03-29T01:24:36;5.70;99.90
31733;DHT22;18312;51.486;7.144;2023-03-29T01:27:10;5.70;99.90
31733;DHT22;18312;51.486;7.144;2023-03-29T01:29:40;5.80;99.90
31733;DHT22;18312;51.486;7.144;2023-03-29T01:32:08;5.80;99.90
31733;DHT22;18312;51.486;7.144;2023-03-29T01:34:39;5.80;99.90
31733;DHT22;18312;51.486;7.144;2023-03-29T01:37:07;5.80;99.90
31733;DHT22;18312;51.486;7.144;2023-03-29T01:39:34;5.80;99.90
31733;DHT22;18312;51.486;7.144;2023-03-29T01:42:05;5.80;99.90
31733;DHT22;18312;51.486;7.144;2023-03-29T01:44:35;5.80;99.90
31733;DHT22;18312;51.486;7.144;2023-03-29T01:47:05;5.80;99.90
31733;DHT22;18312;51.486;7.144;2023-03-29T01:49:35;5.80;99.90
31733;DHT22;18312;51.486;7.144;2023-03-29T01:52:05;5.90;99.90
31733;DHT22;18312;51.486;7.144;2023-03-29T01:54:33;5.90;99.90
31733;DHT22;18312;51.486;7.144;2023-03-29T01:57:00;5.90;99.90
31733;DHT22;18312;51.486;7.144;2023-03-29T01:59:30;5.90;99.90
31733;DHT22;18312;51.486;7.144;2023-03-29T02:01:57;5.90;99.90
31733;DHT22;18312;51.486;7.144;2023-03-29T02:04:26;5.90;99.90
31733;DHT22;18312;51.486;7.144;2023-03-29T02:06:54;5.80;99.90
31733;DHT22;18312;51.486;7.144;2023-03-29T02:09:22;5.90;99.90
31733;DHT22;18312;51.486;7.144;2023-03-29T02:11:49;6.00;99.90
31733;DHT22;18312;51.486;7.144;2023-03-29T02:14:16;6.00;99.90
31733;DHT22;18312;51.486;7.144;2023-03-29T02:16:43;6.00;99.90
31733;DHT22;18312;51.486;7.144;2023-03-29T02:19:10;6.00;99.90
31733;DHT22;18312;51.486;7.144;2023-03-29T02:21:40;6.10;99.90
31733;DHT22;18312;51.486;7.144;2023-03-29T02:24:12;6.10;99.90
31733;DHT22;18312;51.486;7.144;2023-03-29T02:26:40;6.10;99.90
31733;DHT22;18312;51.486;7.144;2023-03-29T02:29:07;6.20;99.90
31733;DHT22;18312;51.486;7.144;2023-03-29T02:31:34;6.20;99.90
31733;DHT22;18312;51.486;7.144;2023-03-29T02:34:03;6.20;99.90
31733;DHT22;18312;51.486;7.144;2023-03-29T02:36:33;6.20;99.90
31733;DHT22;18312;51.486;7.144;2023-03-29T02:39:03;6.30;99.90
31733;DHT22;18312;51.486;7.144;2023-03-29T02:41:32;6.20;99.90
31733;DHT22;18312;51.486;7.144;2023-03-29T02:44:00;6.30;99.90
31733;DHT22;18312;51.486;7.144;2023-03-29T02:46:28;6.30;99.90
31733;DHT22;18312;51.486;7.144;2023-03-29T02:48:55;6.30;99.90
31733;DHT22;18312;51.486;7.144;2023-03-29T02:51:23;6.40;99.90
31733;DHT22;18312;51.486;7.144;2023-03-29T02:53:51;6.40;99.90
31733;DHT22;18312;51.486;7.144;2023-03-29T02:56:23;6.40;99.90
31733;DHT22;18312;51.486;7.144;2023-03-29T02:58:50;6.50;99.90
31733;DHT22;18312;51.486;7.144;2023-03-29T03:01:17;6.40;99.90
31733;DHT22;18312;51.486;7.144;2023-03-29T03:03:44;6.50;99.90
31733;DHT22;18312;51.486;7.144;2023-03-29T03:06:12;6.50;99.90
31733;DHT22;18312;51.486;7.144;2023-03-29T03:08:39;6.50;99.90
31733;DHT22;18312;51.486;7.144;2023-03-29T03:11:06;6.50;99.90
31733;DHT22;18312;51.486;7.144;2023-03-29T03:13:34;6.60;99.90
31733;DHT22;18312;51.486;7.144;2023-03-29T03:16:00;6.60;99.90
31733;DHT22;18312;51.486;7.144;2023-03-29T03:18:27;6.60;99.90
31733;DHT22;18312;51.486;7.144;2023-03-29T03:20:54;6.60;99.90
31733;DHT22;18312;51.486;7.144;2023-03-29T03:23:21;6.60;99.90
31733;DHT22;18312;51.486;7.144;2023-03-29T03:25:48;6.60;99.90
31733;DHT22;18312;51.486;7.144;2023-03-29T03:28:14;6.60;99.90
31733;DHT22;18312;51.486;7.144;2023-03-29T03:30:42;6.60;99.90
31733;DHT22;18312;51.486;7.144;2023-03-29T03:33:09;6.60;99.90
31733;DHT22;18312;51.486;7.144;2023-03-29T03:35:35;6.60;99.90
31733;DHT22;18312;51.486;7.144;2023-03-29T03:38:03;6.60;99.90
31733;DHT22;18312;51.486;7.144;2023-03-29T03:40:30;6.60;99.90
31733;DHT22;18312;51.486;7.144;2023-03-29T03:42:56;6.60;99.90
31733;DHT22;18312;51.486;7.144;2023-03-29T03:45:23;6.60;99.90
31733;DHT22;18312;51.486;7.144;2023-03-29T03:47:51;6.60;99.90
31733;DHT22;18312;51.486;7.144;2023-03-29T03:50:18;6.60;99.90
31733;DHT22;18312;51.486;7.144;2023-03-29T03:52:44;6.60;99.90
31733;DHT22;18312;51.486;7.144;2023-03-29T03:55:11;6.50;99.90
31733;DHT22;18312;51.486;7.144;2023-03-29T03:57:38;6.50;99.90
31733;DHT22;18312;51.486;7.144;2023-03-29T04:00:05;6.50;99.90
31733;DHT22;18312;51.486;7.144;2023-03-29T04:02:43;6.50;99.90
31733;DHT22;18312;51.486;7.144;2023-03-29T04:05:11;6.50;99.90
31733;DHT22;18312;51.486;7.144;2023-03-29T04:07:37;6.40;99.90
31733;DHT22;18312;51.486;7.144;2023-03-29T04:10:04;6.40;99.90
31733;DHT22;18312;51.486;7.144;2023-03-29T04:12:33;6.30;99.90
31733;DHT22;18312;51.486;7.144;2023-03-29T04:15:00;6.30;99.90
31733;DHT22;18312;51.486;7.144;2023-03-29T04:17:26;6.20;99.90
31733;DHT22;18312;51.486;7.144;2023-03-29T04:19:53;6.10;99.90
31733;DHT22;18312;51.486;7.144;2023-03-29T04:22:21;6.20;99.90
31733;DHT22;18312;51.486;7.144;2023-03-29T04:24:47;6.20;99.90
31733;DHT22;18312;51.486;7.144;2023-03-29T04:27:14;6.20;99.90
31733;DHT22;18312;51.486;7.144;2023-03-29T04:29:40;6.20;99.90
31733;DHT22;18312;51.486;7.144;2023-03-29T04:32:09;6.20;99.90
31733;DHT22;18312;51.486;7.144;2023-03-29T04:34:36;6.20;99.90
31733;DHT22;18312;51.486;7.144;2023-03-29T04:37:02;6.30;99.90
31733;DHT22;18312;51.486;7.144;2023-03-29T04:39:36;6.30;99.90
31733;DHT22;18312;51.486;7.144;2023-03-29T04:42:03;6.30;99.90
31733;DHT22;18312;51.486;7.144;2023-03-29T04:44:30;6.30;99.90
31733;DHT22;18312;51.486;7.144;2023-03-29T04:46:57;6.30;99.90
31733;DHT22;18312;51.486;7.144;2023-03-29T04:49:24;6.40;99.90
31733;DHT22;18312;51.486;7.144;2023-03-29T04:51:51;6.40;99.90
31733;DHT22;18312;51.486;7.144;2023-03-29T04:54:18;6.40;99.90
31733;DHT22;18312;51.486;7.144;2023-03-29T04:56:46;6.40;99.90
31733;DHT22;18312;51.486;7.144;2023-03-29T04:59:13;6.40;99.90
31733;DHT22;18312;51.486;7.144;2023-03-29T05:01:39;6.40;99.90
31733;DHT22;18312;51.486;7.144;2023-03-29T05:04:06;6.40;99.90
31733;DHT22;18312;51.486;7.144;2023-03-29T05:06:32;6.50;99.90
31733;DHT22;18312;51.486;7.144;2023-03-29T05:08:59;6.50;99.90
31733;DHT22;18312;51.486;7.144;2023-03-29T05:11:26;6.50;99.90
31733;DHT22;18312;51.486;7.144;2023-03-29T05:13:54;6.50;99.90
31733;DHT22;18312;51.486;7.144;2023-03-29T05:16:25;6.50;99.90
31733;DHT22;18312;51.486;7.144;2023-03-29T05:18:54;6.50;99.90
31733;DHT22;18312;51.486;7.144;2023-03-29T05:21:20;6.40;99.90
31733;DHT22;18312;51.486;7.144;2023-03-29T05:23:48;6.40;99.90
31733;DHT22;18312;51.486;7.144;2023-03-29T05:26:15;6.40;99.90
31733;DHT22;18312;51.486;7.144;2023-03-29T05:28:41;6.40;99.90
31733;DHT22;18312;51.486;7.144;2023-03-29T05:31:09;6.30;99.90
31733;DHT22;18312;51.486;7.144;2023-03-29T05:33:37;6.30;99.90
31733;DHT22;18312;51.486;7.144;2023-03-29T05:36:04;6.30;99.90
31733;DHT22;18312;51.486;7.144;2023-03-29T05:38:31;6.20;99.90
31733;DHT22;18312;51.486;7.144;2023-03-29T05:40:58;6.20;99.90
31733;DHT22;18312;51.486;7.144;2023-03-29T05:43:24;6.20;99.90
31733;DHT22;18312;51.486;7.144;2023-03-29T05:45:51;6.20;99.90
31733;DHT22;18312;51.486;7.144;2023-03-29T05:48:19;6.30;99.90
31733;DHT22;18312;51.486;7.144;2023-03-29T05:50:46;6.20;99.90
31733;DHT22;18312;51.486;7.144;2023-03-29T05:53:14;6.20;99.90
31733;DHT22;18312;51.486;7.144;2023-03-29T05:55:40;6.30;99.90
31733;DHT22;18312;51.486;7.144;2023-03-29T05:58:07;6.30;99.90
31733;DHT22;18312;51.486;7.144;2023-03-29T06:00:34;6.30;99.90
31733;DHT22;18312;51.486;7.144;2023-03-29T06:03:02;6.30;99.90
31733;DHT22;18312;51.486;7.144;2023-03-29T06:05:30;6.40;99.90
31733;DHT22;18312;51.486;7.144;2023-03-29T06:07:57;6.40;99.90
31733;DHT22;18312;51.486;7.144;2023-03-29T06:10:24;6.50;99.90
31733;DHT22;18312;51.486;7.144;2023-03-29T06:12:51;6.50;99.90
31733;DHT22;18312;51.486;7.144;2023-03-29T06:15:18;6.60;99.90
31733;DHT22;18312;51.486;7.144;2023-03-29T06:17:45;6.60;99.90
31733;DHT22;18312;51.486;7.144;2023-03-29T06:20:12;6.70;99.90
31733;DHT22;18312;51.486;7.144;2023-03-29T06:22:40;6.70;99.90
31733;DHT22;18312;51.486;7.144;2023-03-29T06:25:07;6.80;99.90
31733;DHT22;18312;51.486;7.144;2023-03-29T06:27:35;6.80;99.90
31733;DHT22;18312;51.486;7.144;2023-03-29T06:30:02;6.90;99.90
31733;DHT22;18312;51.486;7.144;2023-03-29T06:32:30;6.90;99.90
31733;DHT22;18312;51.486;7.144;2023-03-29T06:34:56;7.10;99.90
31733;DHT22;18312;51.486;7.144;2023-03-29T06:37:23;7.10;99.90
31733;DHT22;18312;51.486;7.144;2023-03-29T06:39:50;7.20;99.90
31733;DHT22;18312;51.486;7.144;2023-03-29T06:42:18;7.20;99.90
31733;DHT22;18312;51.486;7.144;2023-03-29T06:44:45;7.30;99.90
31733;DHT22;18312;51.486;7.144;2023-03-29T06:47:12;7.30;99.90
31733;DHT22;18312;51.486;7.144;2023-03-29T06:49:38;7.40;99.90
31733;DHT22;18312;51.486;7.144;2023-03-29T06:52:05;7.50;99.90
31733;DHT22;18312;51.486;7.144;2023-03-29T06:54:31;7.50;99.90
31733;DHT22;18312;51.486;7.144;2023-03-29T06:57:00;7.50;99.90
31733;DHT22;18312;51.486;7.144;2023-03-29T06:59:28;7.60;99.90
31733;DHT22;18312;51.486;7.144;2023-03-29T07:01:54;7.60;99.90
31733;DHT22;18312;51.486;7.144;2023-03-29T07:04:21;7.70;99.90
31733;DHT22;18312;51.486;7.144;2023-03-29T07:06:47;7.70;99.90
31733;DHT22;18312;51.486;7.144;2023-03-29T07:09:25;7.70;99.90
31733;DHT22;18312;51.486;7.144;2023-03-29T07:11:54;7.80;99.90
31733;DHT22;18312;51.486;7.144;2023-03-29T07:14:22;7.90;99.90
31733;DHT22;18312;51.486;7.144;2023-03-29T07:16:50;8.00;99.90
31733;DHT22;18312;51.486;7.144;2023-03-29T07:19:17;8.00;99.90
31733;DHT22;18312;51.486;7.144;2023-03-29T07:21:46;8.00;99.90
31733;DHT22;18312;51.486;7.144;2023-03-29T07:24:13;8.10;99.90
31733;DHT22;18312;51.486;7.144;2023-03-29T07:26:39;8.20;99.90
31733;DHT22;18312;51.486;7.144;2023-03-29T07:29:06;8.30;99.90
31733;DHT22;18312;51.486;7.144;2023-03-29T07:31:36;8.30;99.90
31733;DHT22;18312;51.486;7.144;2023-03-29T07:34:05;8.30;99.90
31733;DHT22;18312;51.486;7.144;2023-03-29T07:36:35;8.40;99.90
31733;DHT22;18312;51.486;7.144;2023-03-29T07:39:02;8.50;99.90
31733;DHT22;18312;51.486;7.144;2023-03-29T07:41:29;8.50;99.90
31733;DHT22;18312;51.486;7.144;2023-03-29T07:43:56;8.60;99.90
31733;DHT22;18312;51.486;7.144;2023-03-29T07:46:23;8.60;99.90
31733;DHT22;18312;51.486;7.144;2023-03-29T07:48:51;8.70;99.90
31733;DHT22;18312;51.486;7.144;2023-03-29T07:51:20;8.80;99.90
31733;DHT22;18312;51.486;7.144;2023-03-29T07:53:47;8.90;99.90
31733;DHT22;18312;51.486;7.144;2023-03-29T07:56:14;8.90;99.90
31733;DHT22;18312;51.486;7.144;2023-03-29T07:58:41;9.00;99.90
31733;DHT22;18312;51.486;7.144;2023-03-29T08:01:07;9.10;99.90
31733;DHT22;18312;51.486;7.144;2023-03-29T08:03:34;9.20;99.90
31733;DHT22;18312;51.486;7.144;2023-03-29T08:06:02;9.20;99.90
31733;DHT22;18312;51.486;7.144;2023-03-29T08:08:28;9.30;99.90
31733;DHT22;18312;51.486;7.144;2023-03-29T08:10:55;9.30;99.90
31733;DHT22;18312;51.486;7.144;2023-03-29T08:13:21;9.40;99.90
31733;DHT22;18312;51.486;7.144;2023-03-29T08:15:48;9.40;99.90
31733;DHT22;18312;51.486;7.144;2023-03-29T08:18:15;9.40;99.90
31733;DHT22;18312;51.486;7.144;2023-03-29T08:20:42;9.50;99.90
31733;DHT22;18312;51.486;7.144;2023-03-29T08:23:10;9.40;99.90
31733;DHT22;18312;51.486;7.144;2023-03-29T08:25:37;9.50;99.90
31733;DHT22;18312;51.486;7.144;2023-03-29T08:28:03;9.60;99.90
31733;DHT22;18312;51.486;7.144;2023-03-29T08:30:30;9.60;99.90
31733;DHT22;18312;51.486;7.144;2023-03-29T08:32:57;9.70;99.90
31733;DHT22;18312;51.486;7.144;2023-03-29T08:35:23;9.90;99.90
31733;DHT22;18312;51.486;7.144;2023-03-29T08:37:50;9.90;99.90
31733;DHT22;18312;51.486;7.144;2023-03-29T08:40:20;10.10;99.90
31733;DHT22;18312;51.486;7.144;2023-03-29T08:42:59;10.10;99.90
31733;DHT22;18312;51.486;7.144;2023-03-29T08:45:32;10.10;99.90
31733;DHT22;18312;51.486;7.144;2023-03-29T08:48:03;10.00;99.90
31733;DHT22;18312;51.486;7.144;2023-03-29T08:50:32;9.90;99.90
31733;DHT22;18312;51.486;7.144;2023-03-29T08:53:01;9.70;99.90
31733;DHT22;18312;51.486;7.144;2023-03-29T08:55:31;9.70;99.90
31733;DHT22;18312;51.486;7.144;2023-03-29T08:57:59;9.70;99.90
31733;DHT22;18312;51.486;7.144;2023-03-29T09:00:31;9.80;99.90
31733;DHT22;18312;51.486;7.144;2023-03-29T09:02:59;9.80;99.90
31733;DHT22;18312;51.486;7.144;2023-03-29T09:05:28;9.90;99.90
31733;DHT22;18312;51.486;7.144;2023-03-29T09:07:56;9.80;99.90
31733;DHT22;18312;51.486;7.144;2023-03-29T09:10:23;9.80;99.90
31733;DHT22;18312;51.486;7.144;2023-03-29T09:12:58;9.90;99.90
31733;DHT22;18312;51.486;7.144;2023-03-29T09:15:32;10.00;99.90
31733;DHT22;18312;51.486;7.144;2023-03-29T09:18:04;10.20;99.90
31733;DHT22;18312;51.486;7.144;2023-03-29T09:20:36;10.30;99.90
31733;DHT22;18312;51.486;7.144;2023-03-29T09:23:07;10.30;99.90
31733;DHT22;18312;51.486;7.144;2023-03-29T09:25:41;10.40;99.90
31733;DHT22;18312;51.486;7.144;2023-03-29T09:28:15;10.50;99.90
31733;DHT22;18312;51.486;7.144;2023-03-29T09:30:45;10.60;99.90
31733;DHT22;18312;51.486;7.144;2023-03-29T09:33:17;10.60;99.90
31733;DHT22;18312;51.486;7.144;2023-03-29T09:35:46;10.70;99.90
31733;DHT22;18312;51.486;7.144;2023-03-29T09:38:14;10.90;99.90
31733;DHT22;18312;51.486;7.144;2023-03-29T09:40:43;10.90;99.90
31733;DHT22;18312;51.486;7.144;2023-03-29T09:43:11;11.20;99.90
31733;DHT22;18312;51.486;7.144;2023-03-29T09:45:39;11.40;99.90
31733;DHT22;18312;51.486;7.144;2023-03-29T09:48:08;11.70;99.90
31733;DHT22;18312;51.486;7.144;2023-03-29T09:50:37;12.00;99.90
31733;DHT22;18312;51.486;7.144;2023-03-29T09:53:05;12.20;99.90
31733;DHT22;18312;51.486;7.144;2023-03-29T09:55:32;12.30;99.90
31733;DHT22;18312;51.486;7.144;2023-03-29T09:58:03;12.00;99.90
31733;DHT22;18312;51.486;7.144;2023-03-29T10:00:31;11.70;99.90
31733;DHT22;18312;51.486;7.144;2023-03-29T10:02:59;11.70;99.90
31733;DHT22;18312;51.486;7.144;2023-03-29T10:05:25;11.80;99.90
31733;DHT22;18312;51.486;7.144;2023-03-29T10:07:56;11.90;99.90
31733;DHT22;18312;51.486;7.144;2023-03-29T10:10:28;12.00;99.90
31733;DHT22;18312;51.486;7.144;2023-03-29T10:12:55;11.90;99.90
31733;DHT22;18312;51.486;7.144;2023-03-29T10:15:26;12.20;99.90
31733;DHT22;18312;51.486;7.144;2023-03-29T10:17:56;12.30;99.90
31733;DHT22;18312;51.486;7.144;2023-03-29T10:20:25;12.40;99.90
31733;DHT22;18312;51.486;7.144;2023-03-29T10:22:54;12.60;99.90
31733;DHT22;18312;51.486;7.144;2023-03-29T10:25:23;12.50;99.90
31733;DHT22;18312;51.486;7.144;2023-03-29T10:27:50;12.50;99.90
31733;DHT22;18312;51.486;7.144;2023-03-29T10:30:19;12.50;99.90
31733;DHT22;18312;51.486;7.144;2023-03-29T10:32:50;12.50;99.90
31733;DHT22;18312;51.486;7.144;2023-03-29T10:35:22;12.30;99.90
31733;DHT22;18312;51.486;7.144;2023-03-29T10:37:51;12.30;99.90
31733;DHT22;18312;51.486;7.144;2023-03-29T10:40:18;12.30;99.90
31733;DHT22;18312;51.486;7.144;2023-03-29T10:42:47;12.50;99.90
31733;DHT22;18312;51.486;7.144;2023-03-29T10:45:18;12.60;99.90
31733;DHT22;18312;51.486;7.144;2023-03-29T10:47:47;13.10;99.90
31733;DHT22;18312;51.486;7.144;2023-03-29T10:50:14;13.40;99.90
31733;DHT22;18312;51.486;7.144;2023-03-29T10:52:41;13.50;99.90
31733;DHT22;18312;51.486;7.144;2023-03-29T10:55:12;13.50;99.90
31733;DHT22;18312;51.486;7.144;2023-03-29T10:57:41;13.40;99.90
31733;DHT22;18312;51.486;7.144;2023-03-29T11:00:13;13.20;99.90
31733;DHT22;18312;51.486;7.144;2023-03-29T11:02:46;13.10;99.90
31733;DHT22;18312;51.486;7.144;2023-03-29T11:05:18;13.30;99.90
31733;DHT22;18312;51.486;7.144;2023-03-29T11:07:52;13.70;99.90
31733;DHT22;18312;51.486;7.144;2023-03-29T11:10:32;14.00;99.90
31733;DHT22;18312;51.486;7.144;2023-03-29T11:13:01;14.10;99.90
31733;DHT22;18312;51.486;7.144;2023-03-29T11:15:37;14.30;99.90
31733;DHT22;18312;51.486;7.144;2023-03-29T11:18:20;14.50;99.90
31733;DHT22;18312;51.486;7.144;2023-03-29T11:20:53;14.60;99.90
31733;DHT22;18312;51.486;7.144;2023-03-29T11:23:26;14.80;99.90
31733;DHT22;18312;51.486;7.144;2023-03-29T11:25:59;15.20;99.90
31733;DHT22;18312;51.486;7.144;2023-03-29T11:28:30;15.50;99.90
31733;DHT22;18312;51.486;7.144;2023-03-29T11:30:59;15.40;99.90
31733;DHT22;18312;51.486;7.144;2023-03-29T11:33:30;15.30;99.90
31733;DHT22;18312;51.486;7.144;2023-03-29T11:36:00;15.40;99.90
31733;DHT22;18312;51.486;7.144;2023-03-29T11:38:34;15.30;99.90
31733;DHT22;18312;51.486;7.144;2023-03-29T11:41:03;15.40;99.90
31733;DHT22;18312;51.486;7.144;2023-03-29T11:43:36;15.20;99.90
31733;DHT22;18312;51.486;7.144;2023-03-29T11:46:07;15.30;99.90
31733;DHT22;18312;51.486;7.144;2023-03-29T11:48:36;15.50;99.90
31733;DHT22;18312;51.486;7.144;2023-03-29T11:51:04;15.60;99.90
31733;DHT22;18312;51.486;7.144;2023-03-29T11:53:35;16.10;99.90
31733;DHT22;18312;51.486;7.144;2023-03-29T11:56:07;16.00;99.00
31733;DHT22;18312;51.486;7.144;2023-03-29T11:58:35;15.70;99.20
31733;DHT22;18312;51.486;7.144;2023-03-29T12:01:03;15.80;99.40
31733;DHT22;18312;51.486;7.144;2023-03-29T12:03:33;15.80;99.00
31733;DHT22;18312;51.486;7.144;2023-03-29T12:06:03;16.00;99.20
31733;DHT22;18312;51.486;7.144;2023-03-29T12:08:31;15.90;99.10
31733;DHT22;18312;51.486;7.144;2023-03-29T12:11:02;16.30;99.90
31733;DHT22;18312;51.486;7.144;2023-03-29T12:13:32;16.20;99.70
31733;DHT22;18312;51.486;7.144;2023-03-29T12:16:01;16.20;98.70
31733;DHT22;18312;51.486;7.144;2023-03-29T12:18:31;16.30;99.00
31733;DHT22;18312;51.486;7.144;2023-03-29T12:21:02;16.20;98.90
31733;DHT22;18312;51.486;7.144;2023-03-29T12:23:35;16.40;99.20
31733;DHT22;18312;51.486;7.144;2023-03-29T12:26:03;16.70;99.30
31733;DHT22;18312;51.486;7.144;2023-03-29T12:28:43;16.80;98.70
31733;DHT22;18312;51.486;7.144;2023-03-29T12:31:16;16.70;98.30
31733;DHT22;18312;51.486;7.144;2023-03-29T12:33:52;16.70;98.20
31733;DHT22;18312;51.486;7.144;2023-03-29T12:36:38;16.60;98.50
31733;DHT22;18312;51.486;7.144;2023-03-29T12:39:10;16.40;98.80
31733;DHT22;18312;51.486;7.144;2023-03-29T12:41:37;16.00;99.30
31733;DHT22;18312;51.486;7.144;2023-03-29T12:44:11;16.60;99.80
31733;DHT22;18312;51.486;7.144;2023-03-29T12:46:38;16.50;98.60
31733;DHT22;18312;51.486;7.144;2023-03-29T12:49:06;16.40;98.80
31733;DHT22;18312;51.486;7.144;2023-03-29T12:51:35;16.60;98.50
31733;DHT22;18312;51.486;7.144;2023-03-29T12:54:05;16.20;98.60
31733;DHT22;18312;51.486;7.144;2023-03-29T12:59:23;16.30;99.40
31733;DHT22;18312;51.486;7.144;2023-03-29T13:01:55;15.60;99.10
31733;DHT22;18312;51.486;7.144;2023-03-29T13:04:32;15.50;99.50
31733;DHT22;18312;51.486;7.144;2023-03-29T13:06:59;15.50;99.50
31733;DHT22;18312;51.486;7.144;2023-03-29T13:09:34;15.50;99.40
31733;DHT22;18312;51.486;7.144;2023-03-29T13:12:06;15.50;99.90
31733;DHT22;18312;51.486;7.144;2023-03-29T13:14:35;15.50;99.70
31733;DHT22;18312;51.486;7.144;2023-03-29T13:17:03;15.60;99.40
31733;DHT22;18312;51.486;7.144;2023-03-29T13:19:31;15.80;99.10
31733;DHT22;18312;51.486;7.144;2023-03-29T13:22:04;16.00;98.90
31733;DHT22;18312;51.486;7.144;2023-03-29T13:24:40;16.30;99.30
31733;DHT22;18312;51.486;7.144;2023-03-29T13:27:11;16.30;98.80
31733;DHT22;18312;51.486;7.144;2023-03-29T13:29:56;16.50;98.70
31733;DHT22;18312;51.486;7.144;2023-03-29T13:32:31;16.40;99.10
31733;DHT22;18312;51.486;7.144;2023-03-29T13:35:05;16.30;99.10
31733;DHT22;18312;51.486;7.144;2023-03-29T13:37:39;16.20;99.30
31733;DHT22;18312;51.486;7.144;2023-03-29T13:40:24;16.10;99.10
31733;DHT22;18312;51.486;7.144;2023-03-29T13:42:56;16.00;99.10
31733;DHT22;18312;51.486;7.144;2023-03-29T13:45:25;15.90;99.70
31733;DHT22;18312;51.486;7.144;2023-03-29T13:48:00;15.70;99.90
31733;DHT22;18312;51.486;7.144;2023-03-29T13:50:49;15.70;99.90
31733;DHT22;18312;51.486;7.144;2023-03-29T13:53:19;15.70;99.90
31733;DHT22;18312;51.486;7.144;2023-03-29T13:55:51;15.70;99.90
31733;DHT22;18312;51.486;7.144;2023-03-29T13:58:23;15.40;99.90
31733;DHT22;18312;51.486;7.144;2023-03-29T14:00:53;15.50;99.90
31733;DHT22;18312;51.486;7.144;2023-03-29T14:03:21;15.50;99.90
31733;DHT22;18312;51.486;7.144;2023-03-29T14:05:51;15.80;99.90
31733;DHT22;18312;51.486;7.144;2023-03-29T14:08:20;15.90;99.90
31733;DHT22;18312;51.486;7.144;2023-03-29T14:10:48;16.20;99.80
31733;DHT22;18312;51.486;7.144;2023-03-29T14:13:19;16.40;99.40
31733;DHT22;18312;51.486;7.144;2023-03-29T14:15:48;16.30;99.50
31733;DHT22;18312;51.486;7.144;2023-03-29T14:18:18;16.40;99.70
31733;DHT22;18312;51.486;7.144;2023-03-29T14:20:46;16.10;99.30
31733;DHT22;18312;51.486;7.144;2023-03-29T14:23:14;16.00;99.30
31733;DHT22;18312;51.486;7.144;2023-03-29T14:25:43;16.00;99.60
31733;DHT22;18312;51.486;7.144;2023-03-29T14:28:20;16.00;99.60
31733;DHT22;18312;51.486;7.144;2023-03-29T14:30:46;15.70;99.80
31733;DHT22;18312;51.486;7.144;2023-03-29T14:33:14;15.80;99.90
31733;DHT22;18312;51.486;7.144;2023-03-29T14:35:42;16.10;99.90
31733;DHT22;18312;51.486;7.144;2023-03-29T14:38:09;16.10;99.90
31733;DHT22;18312;51.486;7.144;2023-03-29T14:40:37;16.20;99.80
31733;DHT22;18312;51.486;7.144;2023-03-29T14:43:04;16.20;99.50
31733;DHT22;18312;51.486;7.144;2023-03-29T14:45:32;16.30;99.90
31733;DHT22;18312;51.486;7.144;2023-03-29T14:47:58;16.30;99.60
31733;DHT22;18312;51.486;7.144;2023-03-29T14:50:26;16.30;99.60
31733;DHT22;18312;51.486;7.144;2023-03-29T14:52:55;16.50;99.90
31733;DHT22;18312;51.486;7.144;2023-03-29T14:55:23;16.40;99.60
31733;DHT22;18312;51.486;7.144;2023-03-29T14:57:52;16.40;99.80
31733;DHT22;18312;51.486;7.144;2023-03-29T15:00:23;16.60;99.30
31733;DHT22;18312;51.486;7.144;2023-03-29T15:02:53;16.60;99.80
31733;DHT22;18312;51.486;7.144;2023-03-29T15:05:24;16.50;99.60
31733;DHT22;18312;51.486;7.144;2023-03-29T15:07:53;16.50;99.50
31733;DHT22;18312;51.486;7.144;2023-03-29T15:10:22;16.50;99.50
31733;DHT22;18312;51.486;7.144;2023-03-29T15:12:49;16.70;99.90
31733;DHT22;18312;51.486;7.144;2023-03-29T15:15:16;16.60;99.60
31733;DHT22;18312;51.486;7.144;2023-03-29T15:17:43;16.60;99.50
31733;DHT22;18312;51.486;7.144;2023-03-29T15:20:12;16.50;99.50
31733;DHT22;18312;51.486;7.144;2023-03-29T15:22:50;16.30;99.10
31733;DHT22;18312;51.486;7.144;2023-03-29T15:25:18;16.20;99.30
31733;DHT22;18312;51.486;7.144;2023-03-29T15:27:48;16.30;99.70
31733;DHT22;18312;51.486;7.144;2023-03-29T15:30:15;16.30;99.50
31733;DHT22;18312;51.486;7.144;2023-03-29T15:32:43;16.30;99.70
31733;DHT22;18312;51.486;7.144;2023-03-29T15:35:19;16.40;99.90
31733;DHT22;18312;51.486;7.144;2023-03-29T15:37:47;16.40;99.90
31733;DHT22;18312;51.486;7.144;2023-03-29T15:40:14;16.30;99.90
31733;DHT22;18312;51.486;7.144;2023-03-29T15:42:41;16.20;99.80
31733;DHT22;18312;51.486;7.144;2023-03-29T15:45:11;16.20;99.50
31733;DHT22;18312;51.486;7.144;2023-03-29T15:47:39;16.20;99.90
31733;DHT22;18312;51.486;7.144;2023-03-29T15:50:06;16.20;99.90
31733;DHT22;18312;51.486;7.144;2023-03-29T15:52:33;16.20;99.70